Time;durP1;ratioP1;P1;durP2;ratioP2;P2;SDS_P1;SDS_P2;PMS_P1;PMS_P2;Temp;Humidity;BMP_temperature;BMP_pressure;BME280_temperature;BME280_humidity;BME280_pressure;Samples;Min_cycle;Max_cycle;Signal;HPM_P1;HPM_P2
2022/06/13 00:01:27;;;;;;;9.63;5.20;;;14.20;99.90;;;;;;4990224;28;20048;-77
2022/06/13 00:03:53;;;;;;;4.30;3.45;;;14.20;99.90;;;;;;4983484;28;20078;-76
2022/06/13 00:06:19;;;;;;;7.05;3.85;;;14.10;99.90;;;;;;4969567;28;20084;-76
2022/06/13 00:08:46;;;;;;;11.93;4.57;;;14.10;99.90;;;;;;4971506;28;20907;-77
2022/06/13 00:11:15;;;;;;;8.18;4.10;;;14.10;99.90;;;;;;4989291;28;20047;-77
2022/06/13 00:13:43;;;;;;;6.82;3.33;;;14.00;99.90;;;;;;4979238;28;20594;-77
2022/06/13 00:16:10;;;;;;;9.45;4.30;;;14.00;99.90;;;;;;4974452;28;20121;-79
2022/06/13 00:18:37;;;;;;;8.90;4.88;;;13.80;99.90;;;;;;4972927;28;20050;-75
2022/06/13 00:21:03;;;;;;;8.27;4.07;;;13.90;99.90;;;;;;4992616;28;20149;-77
2022/06/13 00:23:29;;;;;;;13.13;5.00;;;13.80;99.90;;;;;;4973694;28;20054;-79
2022/06/13 00:25:55;;;;;;;7.28;4.28;;;13.80;99.90;;;;;;4980464;28;20777;-84
2022/06/13 00:28:21;;;;;;;10.57;5.07;;;13.80;99.90;;;;;;4973263;28;20045;-77
2022/06/13 00:30:47;;;;;;;6.57;4.63;;;13.70;99.90;;;;;;4980282;28;20112;-77
2022/06/13 00:33:12;;;;;;;4.97;3.65;;;13.60;99.90;;;;;;4972793;28;20465;-77
2022/06/13 00:35:38;;;;;;;4.70;3.75;;;13.60;99.90;;;;;;4982672;28;20050;-77
2022/06/13 00:38:04;;;;;;;6.97;4.30;;;13.60;99.90;;;;;;4983797;28;20085;-83
2022/06/13 00:40:31;;;;;;;7.32;4.28;;;13.60;99.90;;;;;;4974196;28;20351;-81
2022/06/13 00:42:57;;;;;;;7.93;4.07;;;13.60;99.90;;;;;;4974430;28;20046;-78
2022/06/13 00:45:25;;;;;;;10.77;4.55;;;13.60;99.90;;;;;;4975014;28;20876;-78
2022/06/13 00:47:55;;;;;;;8.77;6.30;;;13.60;99.90;;;;;;4978784;28;20046;-79
2022/06/13 00:50:29;;;;;;;6.32;3.78;;;13.60;99.90;;;;;;4978713;28;20054;-83
2022/06/13 00:53:11;;;;;;;7.72;4.43;;;13.60;99.90;;;;;;4997713;28;20077;-83
2022/06/13 00:55:51;;;;;;;14.73;4.32;;;13.60;99.90;;;;;;4984891;28;20793;-81
2022/06/13 00:58:17;;;;;;;8.23;4.60;;;13.60;99.90;;;;;;4983298;28;20042;-82
2022/06/13 01:00:48;;;;;;;5.88;3.67;;;13.50;99.90;;;;;;4961765;28;20057;-81
2022/06/13 01:03:14;;;;;;;10.57;4.75;;;13.60;99.90;;;;;;4979726;28;20587;-82
2022/06/13 01:05:44;;;;;;;8.80;4.57;;;13.50;99.90;;;;;;4975979;28;20050;-83
2022/06/13 01:08:11;;;;;;;5.97;4.03;;;13.50;99.90;;;;;;4983163;28;20088;-85
2022/06/13 01:13:58;;;;;;;6.35;3.78;;;13.50;99.90;;;;;;4979986;28;20085;-82
2022/06/13 01:16:50;;;;;;;7.43;4.28;;;13.60;99.90;;;;;;4983118;28;20088;-83
2022/06/13 01:19:48;;;;;;;7.15;4.13;;;13.60;99.90;;;;;;4990626;28;20120;-84
2022/06/13 01:22:35;;;;;;;6.40;4.03;;;13.70;99.90;;;;;;4984444;28;20050;-81
2022/06/13 01:25:18;;;;;;;7.70;4.40;;;13.70;99.90;;;;;;4978036;28;20051;-79
2022/06/13 01:28:05;;;;;;;6.75;4.45;;;13.70;99.90;;;;;;4979384;28;20050;-80
2022/06/13 01:30:43;;;;;;;6.13;4.10;;;13.70;99.90;;;;;;4978067;28;20042;-81
2022/06/13 01:33:19;;;;;;;9.88;4.38;;;13.70;99.90;;;;;;4983064;28;20046;-81
2022/06/13 01:35:55;;;;;;;6.03;4.80;;;13.60;99.90;;;;;;4977517;28;20144;-80
2022/06/13 01:38:59;;;;;;;5.35;3.17;;;13.60;99.90;;;;;;4986809;28;20058;-79
2022/06/13 01:41:39;;;;;;;9.88;3.83;;;13.50;99.90;;;;;;4980744;28;20050;-83
2022/06/13 01:44:19;;;;;;;6.97;3.70;;;13.10;99.90;;;;;;4964844;28;20089;-81
2022/06/13 01:47:15;;;;;;;10.23;5.38;;;13.50;99.90;;;;;;4994081;28;20069;-80
2022/06/13 01:49:55;;;;;;;7.25;4.53;;;13.50;99.90;;;;;;4973951;28;20086;-82
2022/06/13 01:52:24;;;;;;;7.35;4.40;;;13.50;99.90;;;;;;4987865;28;20085;-81
2022/06/13 01:55:07;;;;;;;9.90;4.85;;;13.50;99.90;;;;;;4979888;28;20053;-81
2022/06/13 01:57:38;;;;;;;8.25;4.60;;;13.50;99.90;;;;;;4970729;28;20724;-80
2022/06/13 02:00:24;;;;;;;12.38;4.60;;;13.50;99.90;;;;;;4979918;28;20061;-81
2022/06/13 02:03:08;;;;;;;6.47;3.75;;;13.50;99.90;;;;;;4979956;28;20156;-81
2022/06/13 02:05:43;;;;;;;9.82;5.03;;;13.50;99.90;;;;;;4979993;28;20043;-80
2022/06/13 02:08:17;;;;;;;9.32;5.10;;;13.50;99.90;;;;;;4967525;28;20046;-80
2022/06/13 02:10:58;;;;;;;6.50;4.70;;;13.50;99.90;;;;;;4973013;28;20050;-81
2022/06/13 02:13:39;;;;;;;8.50;4.10;;;13.50;99.90;;;;;;4966582;28;20054;-81
2022/06/13 02:16:10;;;;;;;7.82;5.35;;;13.50;99.90;;;;;;4975691;28;20066;-80
2022/06/13 02:18:48;;;;;;;12.38;5.53;;;13.50;99.90;;;;;;4993909;28;20528;-80
2022/06/13 02:21:14;;;;;;;18.48;10.98;;;13.50;99.90;;;;;;4966821;28;20526;-80
2022/06/13 02:23:49;;;;;;;10.93;5.97;;;13.50;99.90;;;;;;4970161;28;20098;-81
2022/06/13 02:26:21;;;;;;;8.77;5.65;;;13.50;99.90;;;;;;4966462;28;20517;-79
2022/06/13 02:28:55;;;;;;;14.63;5.78;;;13.50;99.90;;;;;;4978522;28;20061;-80
2022/06/13 02:31:32;;;;;;;9.77;5.40;;;13.50;99.90;;;;;;4975540;28;20053;-78
2022/06/13 02:34:13;;;;;;;10.82;6.50;;;13.50;99.90;;;;;;4979264;28;20121;-78
2022/06/13 02:36:54;;;;;;;14.18;5.75;;;13.60;99.90;;;;;;4954578;28;20058;-79
2022/06/13 02:39:29;;;;;;;9.32;5.53;;;13.50;99.90;;;;;;4970192;28;20046;-80
2022/06/13 02:42:26;;;;;;;8.70;5.18;;;13.80;99.90;;;;;;4976910;28;20042;-81
2022/06/13 02:45:07;;;;;;;10.32;6.32;;;13.60;99.90;;;;;;4972336;28;20058;-80
2022/06/13 02:47:44;;;;;;;9.88;4.93;;;13.60;99.90;;;;;;4978107;28;20053;-74
2022/06/13 02:50:19;;;;;;;13.45;5.88;;;13.70;99.90;;;;;;4982302;28;20056;-84
2022/06/13 02:53:04;;;;;;;9.82;6.15;;;13.70;99.90;;;;;;4980009;28;20092;-83
2022/06/13 02:55:44;;;;;;;17.05;6.88;;;13.70;99.90;;;;;;4998519;28;20164;-79
2022/06/13 02:58:33;;;;;;;26.55;12.57;;;13.80;99.90;;;;;;4964393;28;20058;-81
2022/06/13 03:01:14;;;;;;;16.08;7.55;;;13.80;99.90;;;;;;4972524;28;20053;-84
2022/06/13 03:04:08;;;;;;;15.35;7.22;;;13.80;99.90;;;;;;4993633;28;20052;-82
2022/06/13 03:06:53;;;;;;;12.55;5.53;;;13.80;99.90;;;;;;4983560;28;20050;-83
2022/06/13 03:09:26;;;;;;;13.05;5.32;;;13.80;99.90;;;;;;4986458;28;20171;-82
2022/06/13 03:12:16;;;;;;;10.68;6.57;;;13.90;99.90;;;;;;4984222;28;20157;-79
2022/06/13 03:14:58;;;;;;;11.18;5.88;;;13.90;99.90;;;;;;4981348;28;20058;-77
2022/06/13 03:17:39;;;;;;;8.68;5.05;;;13.90;99.90;;;;;;4983462;28;20049;-81
2022/06/13 03:20:17;;;;;;;9.65;4.32;;;13.90;99.90;;;;;;4990967;28;20114;-80
2022/06/13 03:22:53;;;;;;;9.93;5.53;;;13.80;99.90;;;;;;4982791;28;20054;-79
2022/06/13 03:25:19;;;;;;;11.32;5.53;;;13.90;99.90;;;;;;4990538;28;20121;-83
2022/06/13 03:28:12;;;;;;;17.25;10.32;;;13.90;99.90;;;;;;4980011;28;20096;-83
2022/06/13 03:30:42;;;;;;;16.70;11.30;;;13.90;99.90;;;;;;4980089;28;20042;-80
2022/06/13 03:36:00;;;;;;;12.20;6.85;;;13.90;99.90;;;;;;4976667;28;20521;-80
2022/06/13 03:38:33;;;;;;;9.02;6.03;;;13.90;99.90;;;;;;4975224;28;20557;-85
2022/06/13 03:41:01;;;;;;;12.65;5.63;;;13.90;99.90;;;;;;4983633;28;20641;-81
2022/06/13 03:43:40;;;;;;;10.27;6.15;;;13.90;99.90;;;;;;4983002;28;20058;-81
2022/06/13 03:46:38;;;;;;;14.35;7.22;;;13.90;99.90;;;;;;4979421;28;20086;-83
2022/06/13 03:49:28;;;;;;;41.88;27.15;;;14.00;99.90;;;;;;4985374;28;20050;-82
2022/06/13 03:51:57;;;;;;;11.82;6.95;;;14.00;99.90;;;;;;4981431;28;20108;-82
2022/06/13 03:54:34;;;;;;;11.35;4.97;;;14.00;99.90;;;;;;4982741;28;20147;-81
2022/06/13 03:57:09;;;;;;;9.43;5.82;;;13.50;99.90;;;;;;4985580;28;20483;-81
2022/06/13 03:59:53;;;;;;;12.18;6.15;;;14.00;99.90;;;;;;4974394;28;20049;-82
2022/06/13 04:02:25;;;;;;;12.98;5.25;;;14.10;99.90;;;;;;4976420;28;20162;-82
2022/06/13 04:04:53;;;;;;;8.95;5.30;;;14.10;99.90;;;;;;4983469;28;20050;-79
2022/06/13 04:07:20;;;;;;;8.73;5.80;;;14.20;99.90;;;;;;4981305;28;20058;-77
2022/06/13 04:09:52;;;;;;;7.38;4.32;;;14.20;99.90;;;;;;4982796;28;20133;-79
2022/06/13 04:12:43;;;;;;;16.95;8.90;;;14.20;99.90;;;;;;4981993;28;20042;-76
2022/06/13 04:15:40;;;;;;;23.70;14.85;;;14.20;99.90;;;;;;4964077;28;20121;-78
2022/06/13 04:18:37;;;;;;;14.98;7.47;;;14.20;99.90;;;;;;4996311;28;20057;-78
2022/06/13 04:21:21;;;;;;;10.90;4.95;;;14.20;99.90;;;;;;4982922;28;20052;-78
2022/06/13 04:24:24;;;;;;;11.60;4.63;;;14.10;99.90;;;;;;4980822;28;20560;-78
2022/06/13 04:27:02;;;;;;;11.52;4.53;;;14.10;99.90;;;;;;4979838;28;20046;-79
2022/06/13 04:29:44;;;;;;;8.23;6.10;;;14.00;99.90;;;;;;4978862;28;21104;-81
2022/06/13 04:32:14;;;;;;;13.10;7.10;;;14.10;99.90;;;;;;4984168;28;20090;-77
2022/06/13 04:34:50;;;;;;;8.90;4.07;;;14.00;99.90;;;;;;4977522;28;20082;-78
2022/06/13 04:37:17;;;;;;;9.68;4.93;;;14.00;99.90;;;;;;4971669;28;20534;-75
2022/06/13 04:39:45;;;;;;;9.07;4.95;;;14.00;99.90;;;;;;4986271;28;20050;-76
2022/06/13 04:42:12;;;;;;;8.82;4.03;;;14.00;99.90;;;;;;4970845;28;20084;-77
2022/06/13 04:44:41;;;;;;;9.18;4.32;;;14.10;99.90;;;;;;4971676;28;20514;-75
2022/06/13 04:47:08;;;;;;;7.82;4.10;;;14.10;99.90;;;;;;4974723;28;20042;-78
2022/06/13 04:49:41;;;;;;;10.48;3.85;;;14.10;99.90;;;;;;4981815;28;20047;-77
2022/06/13 04:52:13;;;;;;;6.75;4.30;;;14.20;99.90;;;;;;4968693;28;20059;-78
2022/06/13 04:55:15;;;;;;;7.40;3.13;;;14.20;99.90;;;;;;4982735;28;20069;-75
2022/06/13 04:57:41;;;;;;;7.50;3.75;;;14.20;99.90;;;;;;4954934;28;20901;-78
2022/06/13 05:00:09;;;;;;;5.75;3.22;;;14.20;99.90;;;;;;4985868;28;20046;-79
2022/06/13 05:02:45;;;;;;;10.75;4.05;;;14.30;99.90;;;;;;4978993;28;20140;-78
2022/06/13 05:05:39;;;;;;;7.13;3.22;;;14.30;99.90;;;;;;4950651;28;20133;-76
2022/06/13 05:08:24;;;;;;;7.95;3.25;;;14.40;99.90;;;;;;4967994;28;20058;-78
2022/06/13 05:10:53;;;;;;;5.25;2.58;;;14.50;99.90;;;;;;4977405;28;20042;-77
2022/06/13 05:13:20;;;;;;;6.40;3.08;;;14.60;99.90;;;;;;4983815;28;21006;-75
2022/06/13 05:15:53;;;;;;;7.93;2.88;;;14.80;99.90;;;;;;4978911;28;20685;-79
2022/06/13 05:18:36;;;;;;;7.50;2.47;;;15.00;99.90;;;;;;4981145;28;20046;-76
2022/06/13 05:21:25;;;;;;;4.55;2.63;;;15.10;99.90;;;;;;4977819;28;20054;-76
2022/06/13 05:24:23;;;;;;;8.15;2.47;;;15.10;99.90;;;;;;4986547;28;20042;-78
2022/06/13 05:26:49;;;;;;;3.30;2.40;;;15.10;99.90;;;;;;4979812;28;20053;-76
2022/06/13 05:29:14;;;;;;;6.20;2.40;;;14.90;99.90;;;;;;4973807;28;20050;-74
2022/06/13 05:31:41;;;;;;;3.78;2.50;;;14.70;99.90;;;;;;4984269;28;20081;-77
2022/06/13 05:34:24;;;;;;;3.83;2.00;;;14.60;99.90;;;;;;4982752;28;20054;-77
2022/06/13 05:36:50;;;;;;;3.65;1.85;;;14.40;99.90;;;;;;4979721;28;20105;-78
2022/06/13 05:39:16;;;;;;;2.38;1.48;;;14.30;99.90;;;;;;4981654;28;20058;-77
2022/06/13 05:41:42;;;;;;;3.55;1.90;;;14.20;99.90;;;;;;4976354;28;20533;-78
2022/06/13 05:44:09;;;;;;;2.45;1.35;;;14.20;99.90;;;;;;4973866;28;20038;-79
2022/06/13 05:46:37;;;;;;;2.38;1.70;;;14.20;99.90;;;;;;4969708;28;20065;-76
2022/06/13 05:49:04;;;;;;;1.85;1.35;;;14.20;99.90;;;;;;4988318;28;20057;-80
2022/06/13 05:51:30;;;;;;;1.63;1.38;;;14.30;99.90;;;;;;4977731;28;20058;-79
2022/06/13 05:54:00;;;;;;;1.05;0.90;;;14.40;99.90;;;;;;4989628;28;20097;-78
2022/06/13 05:56:26;;;;;;;2.38;1.45;;;14.40;99.90;;;;;;4976534;28;20050;-79
2022/06/13 05:58:52;;;;;;;2.05;1.95;;;14.40;99.90;;;;;;4987582;28;20053;-79
2022/06/13 06:01:18;;;;;;;6.18;1.50;;;14.50;99.90;;;;;;4950876;28;20046;-78
2022/06/13 06:03:46;;;;;;;2.45;1.20;;;14.50;99.90;;;;;;4986004;28;20124;-78
2022/06/13 06:06:21;;;;;;;2.22;1.40;;;14.60;99.90;;;;;;4989138;28;20149;-77
2022/06/13 06:08:47;;;;;;;0.90;0.90;;;14.70;99.90;;;;;;4978208;28;20050;-80
2022/06/13 06:11:13;;;;;;;2.97;2.50;;;14.80;99.90;;;;;;4976521;28;20069;-77
2022/06/13 06:13:38;;;;;;;2.58;1.17;;;14.80;99.90;;;;;;4975289;28;20730;-79
2022/06/13 06:16:05;;;;;;;2.10;1.02;;;15.00;99.90;;;;;;4987720;28;20120;-79
2022/06/13 06:18:31;;;;;;;1.33;1.08;;;15.40;99.90;;;;;;4986735;28;20053;-78
2022/06/13 06:20:57;;;;;;;3.05;0.80;;;16.40;99.90;;;;;;4962570;28;20051;-80
2022/06/13 06:23:23;;;;;;;2.95;1.08;;;17.40;99.90;;;;;;4985458;28;20172;-78
2022/06/13 06:25:50;;;;;;;1.73;1.10;;;18.20;99.90;;;;;;4979653;28;20579;-78
2022/06/13 06:28:19;;;;;;;4.95;1.55;;;18.10;99.90;;;;;;4975222;28;20342;-80
2022/06/13 06:30:45;;;;;;;0.80;0.80;;;18.20;99.90;;;;;;4979787;28;20824;-80
2022/06/13 06:33:11;;;;;;;2.33;1.05;;;18.90;99.90;;;;;;4984808;28;20100;-79
2022/06/13 06:35:37;;;;;;;2.78;1.08;;;19.60;99.90;;;;;;4975742;28;20928;-77
2022/06/13 06:38:03;;;;;;;1.80;1.40;;;20.10;99.90;;;;;;4953324;28;20050;-78
2022/06/13 06:40:29;;;;;;;4.97;1.17;;;20.00;99.20;;;;;;4968243;28;20046;-80
2022/06/13 06:42:55;;;;;;;2.47;1.30;;;20.70;99.90;;;;;;4975528;28;20124;-79
2022/06/13 06:45:26;;;;;;;6.13;1.33;;;21.20;99.90;;;;;;4979694;28;20039;-75
2022/06/13 06:47:52;;;;;;;3.20;1.10;;;20.30;97.10;;;;;;4632333;28;10000407;-78
2022/06/13 06:50:26;;;;;;;10.52;1.45;;;19.90;99.90;;;;;;4633746;28;10000516;-80
2022/06/13 06:52:53;;;;;;;1.92;1.10;;;19.30;99.90;;;;;;4982967;28;20113;-80
2022/06/13 07:00:54;;;;;;;3.15;1.10;;;18.20;99.90;;;;;;4980625;28;20054;-77
2022/06/13 07:03:19;;;;;;;4.40;2.03;;;18.60;99.90;;;;;;4981721;28;20038;-74
2022/06/13 07:05:46;;;;;;;3.08;1.58;;;18.50;99.90;;;;;;4977333;28;20046;-74
2022/06/13 07:08:13;;;;;;;3.20;1.20;;;18.30;99.90;;;;;;4979303;28;20489;-73
2022/06/13 07:10:39;;;;;;;1.80;1.02;;;18.30;99.90;;;;;;4973497;28;20046;-75
2022/06/13 07:13:04;;;;;;;3.28;1.92;;;18.50;99.90;;;;;;4969528;28;20039;-74
2022/06/13 07:15:30;;;;;;;2.72;1.48;;;19.70;99.90;;;;;;4986547;28;20433;-75
2022/06/13 07:17:56;;;;;;;1.70;1.10;;;20.80;99.60;;;;;;4984692;28;20119;-75
2022/06/13 07:20:22;;;;;;;4.70;1.42;;;21.80;99.40;;;;;;4978131;28;20132;-78
2022/06/13 07:22:50;;;;;;;1.90;1.38;;;22.30;96.50;;;;;;4986029;28;20478;-78
2022/06/13 07:25:25;;;;;;;7.15;1.70;;;22.40;96.20;;;;;;4981378;28;20225;-78
2022/06/13 07:27:51;;;;;;;1.90;1.27;;;22.30;95.90;;;;;;4980095;28;20046;-80
2022/06/13 07:30:20;;;;;;;4.35;1.45;;;21.90;96.10;;;;;;4977841;28;20050;-77
2022/06/13 07:32:47;;;;;;;3.83;1.70;;;21.30;97.50;;;;;;4975039;28;20038;-81
2022/06/13 07:35:16;;;;;;;2.47;0.93;;;20.30;98.50;;;;;;4981646;28;20097;-76
2022/06/13 07:40:27;;;;;;;2.53;1.30;;;18.60;99.90;;;;;;4984737;28;20058;-79
2022/06/13 07:42:58;;;;;;;3.40;0.98;;;18.00;99.90;;;;;;4977131;28;20042;-78
2022/06/13 07:45:27;;;;;;;1.90;0.77;;;17.30;99.90;;;;;;4981183;28;20149;-80
2022/06/13 07:47:54;;;;;;;2.13;1.40;;;17.10;99.90;;;;;;4982754;28;20054;-78
2022/06/13 07:50:23;;;;;;;3.15;1.45;;;17.20;99.90;;;;;;4980491;28;20050;-76
2022/06/13 07:52:50;;;;;;;5.55;1.92;;;18.40;99.90;;;;;;4982024;28;20136;-77
2022/06/13 07:55:17;;;;;;;7.47;3.05;;;20.00;99.90;;;;;;4969972;28;20057;-79
2022/06/13 07:57:43;;;;;;;4.25;1.73;;;20.70;99.90;;;;;;4978044;28;20042;-79
2022/06/13 08:00:12;;;;;;;2.60;2.00;;;20.10;99.90;;;;;;4978977;28;20046;-78
2022/06/13 08:02:39;;;;;;;4.22;1.60;;;19.50;99.90;;;;;;4982899;28;20141;-79
2022/06/13 08:05:05;;;;;;;3.25;1.60;;;18.70;99.90;;;;;;4987234;28;20054;-80
2022/06/13 08:07:31;;;;;;;3.95;1.55;;;18.30;99.90;;;;;;4979511;28;20042;-85
2022/06/13 08:09:57;;;;;;;2.50;1.23;;;17.80;99.90;;;;;;4985777;28;20116;-85
2022/06/13 08:12:24;;;;;;;2.55;1.60;;;17.50;99.90;;;;;;4982102;28;20054;-84
2022/06/13 08:14:50;;;;;;;2.33;1.25;;;17.20;99.90;;;;;;4976572;28;20098;-80
2022/06/13 08:17:19;;;;;;;2.88;1.45;;;17.10;99.90;;;;;;4983201;28;20049;-84
2022/06/13 08:19:45;;;;;;;6.07;1.83;;;16.90;99.90;;;;;;4631432;28;9999922;-75
2022/06/13 08:22:11;;;;;;;5.97;2.78;;;17.00;99.90;;;;;;4986364;28;20072;-75
2022/06/13 08:24:37;;;;;;;7.38;1.90;;;17.90;99.90;;;;;;4980844;28;20061;-76
2022/06/13 08:27:03;;;;;;;5.22;2.58;;;18.10;99.90;;;;;;4970421;28;20042;-75
2022/06/13 08:29:30;;;;;;;6.47;2.53;;;18.00;99.90;;;;;;4983666;28;20050;-82
2022/06/13 08:31:56;;;;;;;8.77;2.85;;;17.80;99.90;;;;;;4954856;28;20046;-87
2022/06/13 08:34:21;;;;;;;2.17;1.35;;;17.60;99.90;;;;;;4984408;28;20049;-86
2022/06/13 08:36:47;;;;;;;6.00;2.40;;;17.60;99.90;;;;;;4987928;28;20597;-85
2022/06/13 08:39:14;;;;;;;4.78;1.80;;;18.00;99.90;;;;;;4977985;28;20046;-85
2022/06/13 08:41:42;;;;;;;3.10;1.83;;;19.00;99.90;;;;;;4978363;28;20106;-84
2022/06/13 08:44:24;;;;;;;3.72;1.20;;;20.10;99.90;;;;;;4973142;28;20038;-82
2022/06/13 08:47:18;;;;;;;4.88;1.60;;;20.90;99.90;;;;;;4954705;28;20046;-84
2022/06/13 08:49:46;;;;;;;;;;;21.60;97.50;;;;;;4978558;28;20072;-81
2022/06/13 08:52:17;;;;;;;6.43;1.90;;;21.70;95.20;;;;;;4981898;28;19971;-82
2022/06/13 08:54:50;;;;;;;4.63;1.40;;;22.10;97.10;;;;;;4978421;28;20051;-83
2022/06/13 08:57:16;;;;;;;2.40;1.30;;;22.10;95.10;;;;;;4984324;28;20412;-82
2022/06/13 08:59:55;;;;;;;4.00;1.25;;;22.50;97.40;;;;;;4971215;28;20049;-86
2022/06/13 09:02:29;;;;;;;2.80;1.23;;;22.50;91.80;;;;;;4979517;28;20177;-82
2022/06/13 09:05:28;;;;;;;3.22;1.10;;;22.60;91.00;;;;;;4980885;28;20135;-80
2022/06/13 09:08:01;;;;;;;3.72;1.00;;;22.60;87.20;;;;;;4967388;28;20047;-83
2022/06/13 09:10:39;;;;;;;;;;;22.60;89.10;;;;;;4980304;28;20133;-85
2022/06/13 09:13:09;;;;;;;2.33;1.02;;;22.60;85.50;;;;;;4978422;28;20320;-84
2022/06/13 09:15:41;;;;;;;3.00;1.23;;;23.10;88.10;;;;;;4968320;28;20137;-80
2022/06/13 09:18:15;;;;;;;4.45;1.13;;;23.80;89.10;;;;;;4983035;28;20052;-79
2022/06/13 09:20:50;;;;;;;3.72;1.48;;;23.00;86.00;;;;;;4987776;28;20590;-79
2022/06/13 09:23:48;;;;;;;2.58;1.00;;;22.80;91.20;;;;;;4977637;28;20160;-77
2022/06/13 09:26:20;;;;;;;2.13;1.02;;;21.20;88.20;;;;;;4972036;28;20454;-81
2022/06/13 09:29:09;;;;;;;4.10;1.27;;;20.30;89.10;;;;;;4958175;28;20054;-82
2022/06/13 09:31:42;;;;;;;4.13;1.85;;;19.70;90.00;;;;;;4964966;28;20077;-80
2022/06/13 09:34:41;;;;;;;3.03;1.25;;;19.30;91.50;;;;;;4976047;28;20805;-81
2022/06/13 09:37:12;;;;;;;3.58;1.20;;;19.80;91.00;;;;;;4952818;28;20058;-75
2022/06/13 09:39:39;;;;;;;14.82;9.02;;;20.40;90.50;;;;;;4973847;28;20108;-75
2022/06/13 09:42:25;;;;;;;26.17;19.65;;;20.40;91.30;;;;;;4978034;28;20062;-74
2022/06/13 09:45:09;;;;;;;12.23;7.75;;;20.20;92.00;;;;;;4977039;28;20120;-75
2022/06/13 09:47:51;;;;;;;4.50;1.58;;;20.00;92.80;;;;;;4985813;28;20057;-74
2022/06/13 09:50:31;;;;;;;6.05;2.95;;;19.30;92.80;;;;;;4979287;28;20062;-74
2022/06/13 09:53:09;;;;;;;4.55;2.08;;;18.80;94.50;;;;;;4972083;28;20377;-74
2022/06/13 09:55:55;;;;;;;5.65;1.45;;;18.40;94.00;;;;;;4973693;28;20593;-76
2022/06/13 09:58:46;;;;;;;2.72;1.00;;;18.20;93.60;;;;;;4988432;28;20769;-78
2022/06/13 10:01:21;;;;;;;5.15;1.50;;;18.10;93.40;;;;;;4989855;28;20049;-76
2022/06/13 10:03:52;;;;;;;4.15;1.55;;;18.20;93.70;;;;;;4961397;28;20050;-79
2022/06/13 10:06:39;;;;;;;4.43;1.30;;;18.50;94.40;;;;;;4964340;28;20054;-78
2022/06/13 10:09:16;;;;;;;4.38;1.63;;;19.50;96.40;;;;;;4978276;28;21168;-80
2022/06/13 10:12:06;;;;;;;3.75;1.50;;;19.90;94.30;;;;;;4976449;28;20086;-80
2022/06/13 10:14:55;;;;;;;4.07;1.80;;;20.40;95.20;;;;;;4968991;28;20137;-77
2022/06/13 10:17:49;;;;;;;6.30;1.38;;;20.90;98.70;;;;;;4991155;28;20060;-78
2022/06/13 10:20:21;;;;;;;;;;;20.20;93.60;;;;;;4982986;28;20054;-77
2022/06/13 10:22:58;;;;;;;2.50;1.80;;;20.10;96.60;;;;;;4963583;28;19983;-77
2022/06/13 10:25:48;;;;;;;2.63;1.30;;;20.10;94.90;;;;;;4976119;28;20502;-80
2022/06/13 10:28:23;;;;;;;2.90;1.65;;;20.70;96.30;;;;;;4973952;28;20060;-81
2022/06/13 10:31:16;;;;;;;3.45;1.30;;;21.50;94.50;;;;;;4982751;28;20197;-81
2022/06/13 10:34:01;;;;;;;2.13;1.30;;;22.10;94.00;;;;;;4983352;28;20062;-80
2022/06/13 10:36:44;;;;;;;4.43;1.63;;;21.70;93.00;;;;;;4976970;28;20463;-84
2022/06/13 10:39:13;;;;;;;6.43;1.60;;;20.70;93.20;;;;;;4984035;28;20078;-80
2022/06/13 10:41:44;;;;;;;3.50;1.48;;;20.10;93.60;;;;;;4984020;28;20042;-82
2022/06/13 10:44:13;;;;;;;4.25;1.70;;;19.70;93.80;;;;;;4975500;28;20434;-87
2022/06/13 10:46:50;;;;;;;11.90;4.18;;;19.80;94.60;;;;;;4964916;28;20046;-79
2022/06/13 10:49:31;;;;;;;7.70;4.30;;;20.20;93.40;;;;;;4977125;28;20054;-79
2022/06/13 10:52:03;;;;;;;3.45;1.50;;;20.00;93.00;;;;;;4988775;28;20113;-78
2022/06/13 10:54:35;;;;;;;4.03;1.00;;;19.60;93.50;;;;;;4977554;28;20050;-78
2022/06/13 10:57:05;;;;;;;4.68;2.05;;;19.10;95.00;;;;;;4969737;28;20058;-79
2022/06/13 10:59:34;;;;;;;5.93;1.75;;;18.90;95.70;;;;;;4958032;28;20385;-78
2022/06/13 11:02:04;;;;;;;4.80;1.45;;;18.50;94.90;;;;;;4985458;28;20060;-79
2022/06/13 11:04:35;;;;;;;6.78;1.83;;;18.40;95.20;;;;;;4982305;28;20073;-78
2022/06/13 11:07:18;;;;;;;5.82;2.50;;;18.40;96.40;;;;;;4980412;28;20051;-78
2022/06/13 11:10:02;;;;;;;11.05;4.25;;;18.40;98.10;;;;;;4982555;28;20058;-81
2022/06/13 11:12:34;;;;;;;3.90;2.30;;;18.20;97.50;;;;;;4982227;28;20042;-79
2022/06/13 11:23:54;;;;;;;3.47;2.17;;;18.30;95.70;;;;;;4982454;28;20062;-77
2022/06/13 11:29:12;;;;;;;2.80;1.90;;;18.50;95.80;;;;;;4988614;28;20136;-80
2022/06/13 11:31:51;;;;;;;4.95;2.17;;;18.50;95.10;;;;;;4979701;28;20172;-79
2022/06/13 11:34:38;;;;;;;4.43;2.15;;;18.60;96.20;;;;;;4974408;28;20140;-79
2022/06/13 11:37:13;;;;;;;5.07;1.65;;;18.50;94.70;;;;;;4961317;28;20513;-77
2022/06/13 11:39:44;;;;;;;64.43;46.83;;;18.30;95.00;;;;;;4994291;28;20811;-80
2022/06/13 11:42:18;;;;;;;10.68;3.00;;;18.30;95.50;;;;;;4985778;28;20038;-78
2022/06/13 11:44:50;;;;;;;11.27;4.63;;;18.10;95.30;;;;;;4977265;28;20054;-80
2022/06/13 11:47:18;;;;;;;8.73;3.63;;;18.20;96.50;;;;;;4986414;28;20534;-80
2022/06/13 11:49:47;;;;;;;9.38;3.83;;;18.20;95.60;;;;;;4992031;28;20524;-80
2022/06/13 11:52:13;;;;;;;4.93;3.33;;;18.30;95.30;;;;;;4991034;28;20045;-77
2022/06/13 11:54:56;;;;;;;5.03;3.03;;;18.50;95.70;;;;;;4986377;28;20637;-78
2022/06/13 11:57:35;;;;;;;8.32;5.13;;;18.70;95.10;;;;;;4989521;28;20120;-81
2022/06/13 12:00:12;;;;;;;3.30;2.28;;;18.70;93.80;;;;;;4990025;28;20054;-77
2022/06/13 12:02:49;;;;;;;5.78;2.30;;;18.60;93.50;;;;;;4986670;28;20137;-77
2022/06/13 12:05:22;;;;;;;6.03;2.80;;;18.30;93.60;;;;;;4982338;28;20042;-78
2022/06/13 12:08:02;;;;;;;9.02;2.55;;;18.30;94.80;;;;;;4972070;28;20061;-78
2022/06/13 12:10:41;;;;;;;5.47;1.63;;;18.30;96.20;;;;;;4982078;28;20052;-79
2022/06/13 12:13:15;;;;;;;5.32;1.67;;;18.40;95.70;;;;;;4978676;28;20046;-81
2022/06/13 12:16:12;;;;;;;4.78;2.10;;;18.50;95.80;;;;;;4981252;28;20116;-79
2022/06/13 12:19:00;;;;;;;4.45;1.75;;;18.70;94.40;;;;;;4955246;28;20426;-77
2022/06/13 12:21:45;;;;;;;5.57;2.00;;;19.30;93.80;;;;;;4978196;28;20046;-77
2022/06/13 12:24:20;;;;;;;19.88;13.20;;;19.60;93.50;;;;;;4997068;28;20045;-76
2022/06/13 12:27:18;;;;;;;12.60;7.88;;;19.50;93.10;;;;;;4978181;28;20105;-75
2022/06/13 12:30:04;;;;;;;7.05;3.17;;;19.20;93.10;;;;;;4965361;28;20054;-84
2022/06/13 12:32:35;;;;;;;4.78;3.15;;;18.80;94.40;;;;;;4973956;28;20054;-81
2022/06/13 12:35:40;;;;;;;4.72;1.90;;;18.70;94.50;;;;;;4983813;28;20078;-82
2022/06/13 12:38:12;;;;;;;90.13;54.00;;;18.60;94.90;;;;;;4943287;28;20066;-79
2022/06/13 12:41:11;;;;;;;6.83;3.40;;;18.40;94.00;;;;;;4972899;28;20178;-80
2022/06/13 12:43:48;;;;;;;6.07;3.05;;;18.20;94.60;;;;;;4969923;28;20310;-78
2022/06/13 12:46:42;;;;;;;4.47;2.35;;;18.30;94.60;;;;;;4976486;28;20050;-78
2022/06/13 12:49:36;;;;;;;5.75;3.20;;;18.40;95.20;;;;;;4978892;28;20673;-82
2022/06/13 12:52:25;;;;;;;4.78;2.10;;;18.50;94.50;;;;;;4991935;28;20042;-81
2022/06/13 12:55:01;;;;;;;4.75;2.25;;;18.70;94.00;;;;;;4979727;28;20046;-84
2022/06/13 12:57:46;;;;;;;6.97;2.40;;;18.50;94.60;;;;;;4979857;28;20060;-81
2022/06/13 13:00:43;;;;;;;17.70;11.13;;;18.20;94.40;;;;;;4979894;28;20057;-86
2022/06/13 13:03:47;;;;;;;7.07;5.20;;;18.30;93.20;;;;;;4985813;28;20042;-79
2022/06/13 13:06:36;;;;;;;6.82;2.50;;;18.30;93.60;;;;;;4979057;28;20054;-86
2022/06/13 13:09:23;;;;;;;3.22;1.50;;;18.30;94.70;;;;;;4961358;28;20054;-84
2022/06/13 13:12:13;;;;;;;4.72;2.10;;;18.40;95.10;;;;;;4976103;28;20042;-79
2022/06/13 13:15:05;;;;;;;3.88;1.48;;;18.40;94.50;;;;;;4964278;28;20051;-73
2022/06/13 13:17:51;;;;;;;5.30;1.95;;;18.70;94.40;;;;;;4970398;28;20089;-79
2022/06/13 13:20:25;;;;;;;5.13;1.75;;;18.70;95.30;;;;;;4976549;28;20054;-82
2022/06/13 13:22:56;;;;;;;4.45;2.00;;;18.70;95.20;;;;;;4987419;28;20054;-78
2022/06/13 13:25:31;;;;;;;5.65;2.00;;;18.30;94.70;;;;;;4980268;28;20042;-81
2022/06/13 13:27:57;;;;;;;7.53;4.30;;;18.30;95.30;;;;;;4984762;28;20058;-77
2022/06/13 13:30:31;;;;;;;8.20;5.90;;;18.30;95.00;;;;;;4983320;28;20053;-85
2022/06/13 13:33:21;;;;;;;4.25;1.92;;;18.10;94.80;;;;;;4976796;28;20073;-79
2022/06/13 13:35:54;;;;;;;4.28;1.33;;;17.90;95.20;;;;;;4975041;28;20042;-79
2022/06/13 13:38:30;;;;;;;5.97;1.77;;;18.10;96.10;;;;;;4982245;28;20065;-83
2022/06/13 13:41:15;;;;;;;3.40;1.63;;;18.30;93.90;;;;;;4981162;28;20050;-85
2022/06/13 13:43:51;;;;;;;2.38;0.90;;;18.20;94.00;;;;;;4972615;28;20047;-80
2022/06/13 13:46:21;;;;;;;1.27;1.02;;;18.30;94.30;;;;;;4977356;28;20050;-78
2022/06/13 13:48:59;;;;;;;3.13;1.60;;;18.50;94.30;;;;;;4977754;28;20050;-82
2022/06/13 13:51:31;;;;;;;2.97;1.20;;;18.50;92.70;;;;;;4978644;28;20060;-86
2022/06/13 13:54:27;;;;;;;3.75;1.42;;;18.70;92.10;;;;;;4976758;28;20175;-78